首页
METAR-TAF:

METAR-TAF

机场 :

Land's End, 英格兰

纬度: 50-06-10N, 经度: 005-40-14W, 海拔: 122米

当前天气观测

该预报发布于5小时和11分钟前的16:50 UTC
风速17节,风向
温度 12°C
湿度 62%
气压 1017 hPa
能见度10公里或以上
少量云层高于1500英尺

METAR: EGHC 261650Z 01017KT 9999 FEW015 12/05 Q1017

时间: 23:01 (22:01 UTC)

预报

该预报发布于8小时和4分钟前的13:57 UTC
预报有效从26日的 15点(UTC)到 26日的 18点(UTC)
风速15节,风向
能见度10公里或以上
少量云层高于3000英尺
几率 40% :
短暂存在
从 26日的 15点(UTC)到 26日的 18点(UTC)
风速18节,风向,有时为28节阵风

TAF: EGHC 261357Z 2615/2618 01015KT 9999 FEW030 PROB40 TEMPO 2615/2618 01018G28KT

超过4000个机场的气象观测和天气预报(METAR&TAF报告)。

可查询的气象台以黄色和红色小点在地图上表示。

将鼠标移到小点上方,可查看气象台名称。

然后点击查看天气观测和预报。

如需切换地图:点击带黑十字的绿色按钮放大地图;点击带横线的绿色按钮缩小地图;或者点击绿色箭头查看邻近地区的地图。


METAR-TAF: